sensor_id;sensor_type;location;lat;lon;timestamp;temperature;humidity
12156;DHT22;6141;49.092;8.516;2022-11-20T00:02:09;8.00;77.00
12156;DHT22;6141;49.092;8.516;2022-11-20T00:04:38;8.10;77.30
12156;DHT22;6141;49.092;8.516;2022-11-20T00:07:06;8.20;76.30
12156;DHT22;6141;49.092;8.516;2022-11-20T00:09:35;8.20;76.00
12156;DHT22;6141;49.092;8.516;2022-11-20T00:12:05;8.30;76.10
12156;DHT22;6141;49.092;8.516;2022-11-20T00:14:34;8.20;76.60
12156;DHT22;6141;49.092;8.516;2022-11-20T00:17:02;8.20;77.70
12156;DHT22;6141;49.092;8.516;2022-11-20T00:19:31;8.20;77.50
12156;DHT22;6141;49.092;8.516;2022-11-20T00:21:59;8.20;77.30
12156;DHT22;6141;49.092;8.516;2022-11-20T00:24:28;8.20;76.70
12156;DHT22;6141;49.092;8.516;2022-11-20T00:26:57;8.20;76.70
12156;DHT22;6141;49.092;8.516;2022-11-20T00:29:29;8.20;76.10
12156;DHT22;6141;49.092;8.516;2022-11-20T00:31:58;8.30;76.30
12156;DHT22;6141;49.092;8.516;2022-11-20T00:34:27;8.30;76.10
12156;DHT22;6141;49.092;8.516;2022-11-20T00:36:56;8.30;76.10
12156;DHT22;6141;49.092;8.516;2022-11-20T00:39:24;8.20;76.60
12156;DHT22;6141;49.092;8.516;2022-11-20T00:41:53;8.20;76.00
12156;DHT22;6141;49.092;8.516;2022-11-20T00:44:22;8.10;75.90
12156;DHT22;6141;49.092;8.516;2022-11-20T00:46:52;8.00;76.80
12156;DHT22;6141;49.092;8.516;2022-11-20T00:49:20;7.90;77.20
12156;DHT22;6141;49.092;8.516;2022-11-20T00:51:50;7.80;77.90
12156;DHT22;6141;49.092;8.516;2022-11-20T00:54:18;7.60;78.40
12156;DHT22;6141;49.092;8.516;2022-11-20T00:56:46;7.50;79.50
12156;DHT22;6141;49.092;8.516;2022-11-20T00:59:15;7.40;81.20
12156;DHT22;6141;49.092;8.516;2022-11-20T01:01:43;7.30;81.60
12156;DHT22;6141;49.092;8.516;2022-11-20T01:04:13;7.30;83.00
12156;DHT22;6141;49.092;8.516;2022-11-20T01:06:42;7.30;82.80
12156;DHT22;6141;49.092;8.516;2022-11-20T01:09:12;7.30;83.00
12156;DHT22;6141;49.092;8.516;2022-11-20T01:11:41;7.40;82.90
12156;DHT22;6141;49.092;8.516;2022-11-20T01:14:10;7.40;83.10
12156;DHT22;6141;49.092;8.516;2022-11-20T01:16:40;7.40;83.30
12156;DHT22;6141;49.092;8.516;2022-11-20T01:19:09;7.20;84.30
12156;DHT22;6141;49.092;8.516;2022-11-20T01:21:45;7.10;84.60
12156;DHT22;6141;49.092;8.516;2022-11-20T01:24:15;7.00;85.70
12156;DHT22;6141;49.092;8.516;2022-11-20T01:26:44;6.90;87.10
12156;DHT22;6141;49.092;8.516;2022-11-20T01:29:16;7.00;87.20
12156;DHT22;6141;49.092;8.516;2022-11-20T01:31:46;7.00;87.00
12156;DHT22;6141;49.092;8.516;2022-11-20T01:34:16;7.00;86.90
12156;DHT22;6141;49.092;8.516;2022-11-20T01:36:47;7.00;87.10
12156;DHT22;6141;49.092;8.516;2022-11-20T01:39:20;7.00;87.30
12156;DHT22;6141;49.092;8.516;2022-11-20T01:41:51;7.00;87.40
12156;DHT22;6141;49.092;8.516;2022-11-20T01:44:53;7.00;87.80
12156;DHT22;6141;49.092;8.516;2022-11-20T01:47:30;7.00;87.80
12156;DHT22;6141;49.092;8.516;2022-11-20T01:50:05;7.00;88.70
12156;DHT22;6141;49.092;8.516;2022-11-20T01:52:36;7.00;88.70
12156;DHT22;6141;49.092;8.516;2022-11-20T01:55:07;7.10;88.70
12156;DHT22;6141;49.092;8.516;2022-11-20T01:57:36;7.10;88.60
12156;DHT22;6141;49.092;8.516;2022-11-20T02:00:06;7.10;88.90
12156;DHT22;6141;49.092;8.516;2022-11-20T02:02:39;7.10;89.40
12156;DHT22;6141;49.092;8.516;2022-11-20T02:05:11;7.10;89.60
12156;DHT22;6141;49.092;8.516;2022-11-20T02:07:43;7.10;90.00
12156;DHT22;6141;49.092;8.516;2022-11-20T02:10:12;7.20;89.90
12156;DHT22;6141;49.092;8.516;2022-11-20T02:12:40;7.40;90.30
12156;DHT22;6141;49.092;8.516;2022-11-20T02:15:26;7.50;89.20
12156;DHT22;6141;49.092;8.516;2022-11-20T02:17:56;7.70;89.00
12156;DHT22;6141;49.092;8.516;2022-11-20T02:20:25;7.80;87.60
12156;DHT22;6141;49.092;8.516;2022-11-20T02:22:56;7.90;87.10
12156;DHT22;6141;49.092;8.516;2022-11-20T02:25:27;7.90;87.00
12156;DHT22;6141;49.092;8.516;2022-11-20T02:27:56;7.80;87.20
12156;DHT22;6141;49.092;8.516;2022-11-20T02:30:24;7.80;87.90
12156;DHT22;6141;49.092;8.516;2022-11-20T02:32:53;7.70;88.60
12156;DHT22;6141;49.092;8.516;2022-11-20T02:35:41;7.70;89.30
12156;DHT22;6141;49.092;8.516;2022-11-20T02:38:11;7.60;90.10
12156;DHT22;6141;49.092;8.516;2022-11-20T02:40:41;7.60;90.60
12156;DHT22;6141;49.092;8.516;2022-11-20T02:43:10;7.50;90.90
12156;DHT22;6141;49.092;8.516;2022-11-20T02:45:39;7.60;91.30
12156;DHT22;6141;49.092;8.516;2022-11-20T02:48:07;7.70;91.10
12156;DHT22;6141;49.092;8.516;2022-11-20T03:03:59;8.20;90.30
12156;DHT22;6141;49.092;8.516;2022-11-20T03:06:28;8.00;90.80
12156;DHT22;6141;49.092;8.516;2022-11-20T03:08:57;8.00;91.40
12156;DHT22;6141;49.092;8.516;2022-11-20T03:11:25;8.00;91.30
12156;DHT22;6141;49.092;8.516;2022-11-20T03:13:54;8.10;91.30
12156;DHT22;6141;49.092;8.516;2022-11-20T03:16:23;8.10;91.30
12156;DHT22;6141;49.092;8.516;2022-11-20T03:18:52;8.20;91.00
12156;DHT22;6141;49.092;8.516;2022-11-20T03:21:21;8.20;90.90
12156;DHT22;6141;49.092;8.516;2022-11-20T03:23:50;8.20;90.60
12156;DHT22;6141;49.092;8.516;2022-11-20T03:26:19;8.20;90.70
12156;DHT22;6141;49.092;8.516;2022-11-20T03:28:49;8.20;90.70
12156;DHT22;6141;49.092;8.516;2022-11-20T03:31:18;8.20;91.00
12156;DHT22;6141;49.092;8.516;2022-11-20T03:33:47;8.20;91.10
12156;DHT22;6141;49.092;8.516;2022-11-20T03:36:16;8.40;90.60
12156;DHT22;6141;49.092;8.516;2022-11-20T03:38:46;8.40;90.40
12156;DHT22;6141;49.092;8.516;2022-11-20T03:41:17;8.30;90.60
12156;DHT22;6141;49.092;8.516;2022-11-20T03:43:49;8.30;90.30
12156;DHT22;6141;49.092;8.516;2022-11-20T03:46:18;8.20;90.70
12156;DHT22;6141;49.092;8.516;2022-11-20T03:48:47;8.20;90.70
12156;DHT22;6141;49.092;8.516;2022-11-20T03:51:19;8.30;90.70
12156;DHT22;6141;49.092;8.516;2022-11-20T03:53:49;8.30;90.60
12156;DHT22;6141;49.092;8.516;2022-11-20T03:56:19;8.40;90.20
12156;DHT22;6141;49.092;8.516;2022-11-20T03:58:48;8.30;90.10
12156;DHT22;6141;49.092;8.516;2022-11-20T04:01:17;8.30;90.20
12156;DHT22;6141;49.092;8.516;2022-11-20T04:03:46;8.30;90.20
12156;DHT22;6141;49.092;8.516;2022-11-20T04:06:15;8.20;90.30
12156;DHT22;6141;49.092;8.516;2022-11-20T04:08:43;8.20;90.60
12156;DHT22;6141;49.092;8.516;2022-11-20T04:11:21;8.10;90.80
12156;DHT22;6141;49.092;8.516;2022-11-20T04:13:50;8.20;90.70
12156;DHT22;6141;49.092;8.516;2022-11-20T04:16:19;8.30;90.50
12156;DHT22;6141;49.092;8.516;2022-11-20T04:18:50;8.30;90.20
12156;DHT22;6141;49.092;8.516;2022-11-20T04:21:19;8.30;90.20
12156;DHT22;6141;49.092;8.516;2022-11-20T04:23:47;8.30;90.30
12156;DHT22;6141;49.092;8.516;2022-11-20T04:26:16;8.20;90.40
12156;DHT22;6141;49.092;8.516;2022-11-20T04:28:46;8.10;90.50
12156;DHT22;6141;49.092;8.516;2022-11-20T04:31:15;8.20;90.30
12156;DHT22;6141;49.092;8.516;2022-11-20T04:33:43;8.20;90.40
12156;DHT22;6141;49.092;8.516;2022-11-20T04:36:13;8.20;90.20
12156;DHT22;6141;49.092;8.516;2022-11-20T04:38:42;8.30;90.20
12156;DHT22;6141;49.092;8.516;2022-11-20T04:41:13;8.40;89.80
12156;DHT22;6141;49.092;8.516;2022-11-20T04:43:47;8.40;89.70
12156;DHT22;6141;49.092;8.516;2022-11-20T04:46:16;8.40;89.40
12156;DHT22;6141;49.092;8.516;2022-11-20T04:48:45;8.40;89.70
12156;DHT22;6141;49.092;8.516;2022-11-20T04:51:15;8.40;89.30
12156;DHT22;6141;49.092;8.516;2022-11-20T04:53:44;8.40;89.20
12156;DHT22;6141;49.092;8.516;2022-11-20T04:56:13;8.40;89.30
12156;DHT22;6141;49.092;8.516;2022-11-20T04:58:42;8.60;88.40
12156;DHT22;6141;49.092;8.516;2022-11-20T05:01:12;8.60;87.50
12156;DHT22;6141;49.092;8.516;2022-11-20T05:03:41;8.60;87.20
12156;DHT22;6141;49.092;8.516;2022-11-20T05:06:11;8.60;87.00
12156;DHT22;6141;49.092;8.516;2022-11-20T05:08:40;8.60;87.70
12156;DHT22;6141;49.092;8.516;2022-11-20T05:11:09;8.60;87.60
12156;DHT22;6141;49.092;8.516;2022-11-20T05:13:37;8.70;87.30
12156;DHT22;6141;49.092;8.516;2022-11-20T05:16:07;8.80;86.10
12156;DHT22;6141;49.092;8.516;2022-11-20T05:18:37;8.80;85.70
12156;DHT22;6141;49.092;8.516;2022-11-20T05:21:07;8.70;85.50
12156;DHT22;6141;49.092;8.516;2022-11-20T05:23:36;8.60;86.50
12156;DHT22;6141;49.092;8.516;2022-11-20T05:26:07;8.60;86.80
12156;DHT22;6141;49.092;8.516;2022-11-20T05:28:36;8.50;87.00
12156;DHT22;6141;49.092;8.516;2022-11-20T05:31:06;8.50;87.30
12156;DHT22;6141;49.092;8.516;2022-11-20T05:33:39;8.40;87.70
12156;DHT22;6141;49.092;8.516;2022-11-20T05:36:08;8.50;87.50
12156;DHT22;6141;49.092;8.516;2022-11-20T05:38:37;8.50;87.20
12156;DHT22;6141;49.092;8.516;2022-11-20T05:41:06;8.50;86.80
12156;DHT22;6141;49.092;8.516;2022-11-20T05:43:35;8.50;87.10
12156;DHT22;6141;49.092;8.516;2022-11-20T05:46:04;8.40;87.80
12156;DHT22;6141;49.092;8.516;2022-11-20T05:48:33;8.40;88.00
12156;DHT22;6141;49.092;8.516;2022-11-20T05:51:04;8.50;87.50
12156;DHT22;6141;49.092;8.516;2022-11-20T05:53:33;8.50;87.60
12156;DHT22;6141;49.092;8.516;2022-11-20T05:56:03;8.50;86.80
12156;DHT22;6141;49.092;8.516;2022-11-20T05:58:32;8.60;86.60
12156;DHT22;6141;49.092;8.516;2022-11-20T06:01:05;8.50;86.30
12156;DHT22;6141;49.092;8.516;2022-11-20T06:03:33;8.40;87.50
12156;DHT22;6141;49.092;8.516;2022-11-20T06:06:04;8.40;87.20
12156;DHT22;6141;49.092;8.516;2022-11-20T06:08:34;8.50;87.50
12156;DHT22;6141;49.092;8.516;2022-11-20T06:11:04;8.50;86.80
12156;DHT22;6141;49.092;8.516;2022-11-20T06:13:34;8.50;86.80
12156;DHT22;6141;49.092;8.516;2022-11-20T06:16:09;8.50;86.50
12156;DHT22;6141;49.092;8.516;2022-11-20T06:18:38;8.60;86.20
12156;DHT22;6141;49.092;8.516;2022-11-20T06:21:10;8.60;85.70
12156;DHT22;6141;49.092;8.516;2022-11-20T06:23:40;8.60;86.20
12156;DHT22;6141;49.092;8.516;2022-11-20T06:26:10;8.70;86.00
12156;DHT22;6141;49.092;8.516;2022-11-20T06:28:39;8.60;86.10
12156;DHT22;6141;49.092;8.516;2022-11-20T06:31:11;8.60;86.40
12156;DHT22;6141;49.092;8.516;2022-11-20T06:33:40;8.40;87.40
12156;DHT22;6141;49.092;8.516;2022-11-20T06:36:12;8.30;88.30
12156;DHT22;6141;49.092;8.516;2022-11-20T06:38:42;8.40;89.10
12156;DHT22;6141;49.092;8.516;2022-11-20T06:41:13;8.40;88.70
12156;DHT22;6141;49.092;8.516;2022-11-20T06:43:42;8.40;88.40
12156;DHT22;6141;49.092;8.516;2022-11-20T06:46:12;8.40;88.60
12156;DHT22;6141;49.092;8.516;2022-11-20T06:48:41;8.40;88.30
12156;DHT22;6141;49.092;8.516;2022-11-20T06:51:11;8.40;88.60
12156;DHT22;6141;49.092;8.516;2022-11-20T06:53:40;8.50;88.30
12156;DHT22;6141;49.092;8.516;2022-11-20T06:56:09;8.50;87.80
12156;DHT22;6141;49.092;8.516;2022-11-20T06:58:37;8.60;87.70
12156;DHT22;6141;49.092;8.516;2022-11-20T07:01:09;8.60;88.00
12156;DHT22;6141;49.092;8.516;2022-11-20T07:03:38;8.70;86.90
12156;DHT22;6141;49.092;8.516;2022-11-20T07:06:08;8.60;86.50
12156;DHT22;6141;49.092;8.516;2022-11-20T07:08:38;8.60;87.30
12156;DHT22;6141;49.092;8.516;2022-11-20T07:11:07;8.60;86.90
12156;DHT22;6141;49.092;8.516;2022-11-20T07:13:36;8.70;86.30
12156;DHT22;6141;49.092;8.516;2022-11-20T07:16:07;8.70;85.60
12156;DHT22;6141;49.092;8.516;2022-11-20T07:18:36;8.70;86.60
12156;DHT22;6141;49.092;8.516;2022-11-20T07:21:08;8.70;85.90
12156;DHT22;6141;49.092;8.516;2022-11-20T07:23:39;8.60;87.00
12156;DHT22;6141;49.092;8.516;2022-11-20T07:26:10;8.50;87.40
12156;DHT22;6141;49.092;8.516;2022-11-20T07:28:38;8.50;87.90
12156;DHT22;6141;49.092;8.516;2022-11-20T07:31:08;8.60;86.80
12156;DHT22;6141;49.092;8.516;2022-11-20T07:33:44;8.60;87.10
12156;DHT22;6141;49.092;8.516;2022-11-20T07:36:13;8.40;88.30
12156;DHT22;6141;49.092;8.516;2022-11-20T07:38:43;8.40;88.90
12156;DHT22;6141;49.092;8.516;2022-11-20T07:41:12;8.40;89.50
12156;DHT22;6141;49.092;8.516;2022-11-20T07:43:41;8.40;90.00
12156;DHT22;6141;49.092;8.516;2022-11-20T07:46:10;8.40;90.20
12156;DHT22;6141;49.092;8.516;2022-11-20T07:48:39;8.40;90.10
12156;DHT22;6141;49.092;8.516;2022-11-20T07:51:08;8.40;90.00
12156;DHT22;6141;49.092;8.516;2022-11-20T07:53:37;8.30;90.40
12156;DHT22;6141;49.092;8.516;2022-11-20T07:56:07;8.40;90.40
12156;DHT22;6141;49.092;8.516;2022-11-20T07:58:36;8.50;90.10
12156;DHT22;6141;49.092;8.516;2022-11-20T08:01:06;8.40;90.40
12156;DHT22;6141;49.092;8.516;2022-11-20T08:03:36;8.30;90.80
12156;DHT22;6141;49.092;8.516;2022-11-20T08:06:07;8.20;91.00
12156;DHT22;6141;49.092;8.516;2022-11-20T08:08:36;8.40;91.10
12156;DHT22;6141;49.092;8.516;2022-11-20T08:11:13;8.40;91.10
12156;DHT22;6141;49.092;8.516;2022-11-20T08:14:00;8.40;91.20
12156;DHT22;6141;49.092;8.516;2022-11-20T08:16:43;8.40;91.20
12156;DHT22;6141;49.092;8.516;2022-11-20T08:19:12;8.30;91.50
12156;DHT22;6141;49.092;8.516;2022-11-20T08:21:42;8.30;91.70
12156;DHT22;6141;49.092;8.516;2022-11-20T08:24:11;8.20;91.70
12156;DHT22;6141;49.092;8.516;2022-11-20T08:26:41;8.20;91.70
12156;DHT22;6141;49.092;8.516;2022-11-20T08:29:10;8.30;91.80
12156;DHT22;6141;49.092;8.516;2022-11-20T08:31:39;8.30;91.80
12156;DHT22;6141;49.092;8.516;2022-11-20T08:34:08;8.30;91.80
12156;DHT22;6141;49.092;8.516;2022-11-20T08:36:43;8.50;91.70
12156;DHT22;6141;49.092;8.516;2022-11-20T08:39:15;8.50;91.40
12156;DHT22;6141;49.092;8.516;2022-11-20T08:41:46;8.40;91.60
12156;DHT22;6141;49.092;8.516;2022-11-20T08:44:14;8.40;91.80
12156;DHT22;6141;49.092;8.516;2022-11-20T08:46:43;8.50;91.90
12156;DHT22;6141;49.092;8.516;2022-11-20T08:49:13;8.50;91.30
12156;DHT22;6141;49.092;8.516;2022-11-20T08:51:43;8.50;91.50
12156;DHT22;6141;49.092;8.516;2022-11-20T08:54:12;8.50;91.40
12156;DHT22;6141;49.092;8.516;2022-11-20T08:56:41;8.40;91.80
12156;DHT22;6141;49.092;8.516;2022-11-20T08:59:11;8.30;92.00
12156;DHT22;6141;49.092;8.516;2022-11-20T09:02:00;8.30;92.40
12156;DHT22;6141;49.092;8.516;2022-11-20T09:04:28;8.30;92.50
12156;DHT22;6141;49.092;8.516;2022-11-20T09:07:00;8.40;92.40
12156;DHT22;6141;49.092;8.516;2022-11-20T09:09:28;8.30;92.30
12156;DHT22;6141;49.092;8.516;2022-11-20T09:11:57;8.40;92.50
12156;DHT22;6141;49.092;8.516;2022-11-20T09:14:27;8.30;92.50
12156;DHT22;6141;49.092;8.516;2022-11-20T09:16:57;8.40;92.50
12156;DHT22;6141;49.092;8.516;2022-11-20T09:19:26;8.40;92.50
12156;DHT22;6141;49.092;8.516;2022-11-20T09:22:07;8.50;92.40
12156;DHT22;6141;49.092;8.516;2022-11-20T09:24:36;8.40;92.70
12156;DHT22;6141;49.092;8.516;2022-11-20T09:27:04;8.40;92.80
12156;DHT22;6141;49.092;8.516;2022-11-20T09:29:38;8.40;92.70
12156;DHT22;6141;49.092;8.516;2022-11-20T09:32:07;8.40;92.90
12156;DHT22;6141;49.092;8.516;2022-11-20T09:34:36;8.40;93.00
12156;DHT22;6141;49.092;8.516;2022-11-20T09:37:05;8.40;93.00
12156;DHT22;6141;49.092;8.516;2022-11-20T09:39:34;8.50;93.30
12156;DHT22;6141;49.092;8.516;2022-11-20T09:45:15;8.60;93.20
12156;DHT22;6141;49.092;8.516;2022-11-20T09:48:05;8.70;92.80
12156;DHT22;6141;49.092;8.516;2022-11-20T09:50:45;8.70;92.80
12156;DHT22;6141;49.092;8.516;2022-11-20T09:53:26;8.70;92.50
12156;DHT22;6141;49.092;8.516;2022-11-20T09:56:01;8.70;92.70
12156;DHT22;6141;49.092;8.516;2022-11-20T09:58:33;8.80;92.70
12156;DHT22;6141;49.092;8.516;2022-11-20T10:01:10;8.90;92.50
12156;DHT22;6141;49.092;8.516;2022-11-20T10:03:50;8.90;92.00
12156;DHT22;6141;49.092;8.516;2022-11-20T10:06:27;8.90;92.20
12156;DHT22;6141;49.092;8.516;2022-11-20T10:09:06;8.80;92.30
12156;DHT22;6141;49.092;8.516;2022-11-20T10:11:48;8.80;92.30
12156;DHT22;6141;49.092;8.516;2022-11-20T10:14:28;8.80;92.20
12156;DHT22;6141;49.092;8.516;2022-11-20T10:17:05;8.80;92.10
12156;DHT22;6141;49.092;8.516;2022-11-20T10:19:45;8.80;92.20
12156;DHT22;6141;49.092;8.516;2022-11-20T10:22:27;8.90;92.00
12156;DHT22;6141;49.092;8.516;2022-11-20T10:25:04;9.00;91.70
12156;DHT22;6141;49.092;8.516;2022-11-20T10:27:44;9.00;91.80
12156;DHT22;6141;49.092;8.516;2022-11-20T10:30:18;8.90;92.00
12156;DHT22;6141;49.092;8.516;2022-11-20T10:32:52;8.90;92.10
12156;DHT22;6141;49.092;8.516;2022-11-20T10:35:28;9.00;92.20
12156;DHT22;6141;49.092;8.516;2022-11-20T10:38:05;9.10;92.30
12156;DHT22;6141;49.092;8.516;2022-11-20T10:40:41;9.20;92.10
12156;DHT22;6141;49.092;8.516;2022-11-20T10:43:14;9.10;92.10
12156;DHT22;6141;49.092;8.516;2022-11-20T10:45:50;9.10;92.20
12156;DHT22;6141;49.092;8.516;2022-11-20T10:48:24;9.30;92.20
12156;DHT22;6141;49.092;8.516;2022-11-20T10:51:12;9.50;92.60
12156;DHT22;6141;49.092;8.516;2022-11-20T10:53:57;9.60;92.40
12156;DHT22;6141;49.092;8.516;2022-11-20T10:56:33;9.70;92.40
12156;DHT22;6141;49.092;8.516;2022-11-20T10:59:19;9.90;92.40
12156;DHT22;6141;49.092;8.516;2022-11-20T11:01:54;10.00;90.60
12156;DHT22;6141;49.092;8.516;2022-11-20T11:04:38;10.00;87.40
12156;DHT22;6141;49.092;8.516;2022-11-20T11:07:12;9.90;89.70
12156;DHT22;6141;49.092;8.516;2022-11-20T11:09:44;9.90;88.20
12156;DHT22;6141;49.092;8.516;2022-11-20T11:12:15;9.90;88.50
12156;DHT22;6141;49.092;8.516;2022-11-20T11:14:45;9.90;88.20
12156;DHT22;6141;49.092;8.516;2022-11-20T11:17:24;10.00;87.90
12156;DHT22;6141;49.092;8.516;2022-11-20T11:20:05;10.10;86.80
12156;DHT22;6141;49.092;8.516;2022-11-20T11:22:46;10.20;86.30
12156;DHT22;6141;49.092;8.516;2022-11-20T11:25:36;10.20;85.80
12156;DHT22;6141;49.092;8.516;2022-11-20T11:28:19;10.30;85.90
12156;DHT22;6141;49.092;8.516;2022-11-20T11:30:48;10.20;85.30
12156;DHT22;6141;49.092;8.516;2022-11-20T11:33:20;10.10;85.30
12156;DHT22;6141;49.092;8.516;2022-11-20T11:35:52;10.10;84.50
12156;DHT22;6141;49.092;8.516;2022-11-20T11:38:29;10.10;84.20
12156;DHT22;6141;49.092;8.516;2022-11-20T11:40:59;10.00;84.30
12156;DHT22;6141;49.092;8.516;2022-11-20T11:43:32;10.00;84.90
12156;DHT22;6141;49.092;8.516;2022-11-20T11:46:29;10.10;84.10
12156;DHT22;6141;49.092;8.516;2022-11-20T11:49:00;10.10;80.30
12156;DHT22;6141;49.092;8.516;2022-11-20T11:51:36;10.10;81.20
12156;DHT22;6141;49.092;8.516;2022-11-20T11:54:15;10.20;82.10
12156;DHT22;6141;49.092;8.516;2022-11-20T11:56:45;10.40;81.80
12156;DHT22;6141;49.092;8.516;2022-11-20T11:59:22;10.40;80.40
12156;DHT22;6141;49.092;8.516;2022-11-20T12:01:56;10.50;76.90
12156;DHT22;6141;49.092;8.516;2022-11-20T12:04:39;10.40;77.10
12156;DHT22;6141;49.092;8.516;2022-11-20T12:07:12;10.30;78.40
12156;DHT22;6141;49.092;8.516;2022-11-20T12:10:06;10.40;76.90
12156;DHT22;6141;49.092;8.516;2022-11-20T12:12:43;10.40;76.80
12156;DHT22;6141;49.092;8.516;2022-11-20T12:15:26;10.50;75.70
12156;DHT22;6141;49.092;8.516;2022-11-20T12:17:57;10.50;75.70
12156;DHT22;6141;49.092;8.516;2022-11-20T12:20:29;10.50;73.90
12156;DHT22;6141;49.092;8.516;2022-11-20T12:23:09;10.40;73.80
12156;DHT22;6141;49.092;8.516;2022-11-20T12:25:43;10.40;73.70
12156;DHT22;6141;49.092;8.516;2022-11-20T12:28:26;10.40;73.20
12156;DHT22;6141;49.092;8.516;2022-11-20T12:31:14;10.40;71.40
12156;DHT22;6141;49.092;8.516;2022-11-20T12:33:55;10.50;72.30
12156;DHT22;6141;49.092;8.516;2022-11-20T12:36:33;10.70;70.40
12156;DHT22;6141;49.092;8.516;2022-11-20T12:39:28;10.90;66.00
12156;DHT22;6141;49.092;8.516;2022-11-20T12:45:29;10.70;63.60
12156;DHT22;6141;49.092;8.516;2022-11-20T12:48:03;10.60;64.30
12156;DHT22;6141;49.092;8.516;2022-11-20T12:50:42;10.60;63.60
12156;DHT22;6141;49.092;8.516;2022-11-20T12:53:33;10.50;62.60
12156;DHT22;6141;49.092;8.516;2022-11-20T12:56:09;10.40;62.90
12156;DHT22;6141;49.092;8.516;2022-11-20T12:58:42;10.40;65.40
12156;DHT22;6141;49.092;8.516;2022-11-20T13:01:17;10.70;65.00
12156;DHT22;6141;49.092;8.516;2022-11-20T13:04:06;11.10;62.70
12156;DHT22;6141;49.092;8.516;2022-11-20T13:15:42;11.90;57.80
12156;DHT22;6141;49.092;8.516;2022-11-20T13:25:09;12.00;49.30
12156;DHT22;6141;49.092;8.516;2022-11-20T13:28:03;12.00;49.40
12156;DHT22;6141;49.092;8.516;2022-11-20T13:30:32;12.30;52.00
12156;DHT22;6141;49.092;8.516;2022-11-20T13:33:43;12.20;47.10
12156;DHT22;6141;49.092;8.516;2022-11-20T13:36:52;12.00;47.10
12156;DHT22;6141;49.092;8.516;2022-11-20T13:39:28;11.40;48.10
12156;DHT22;6141;49.092;8.516;2022-11-20T13:42:37;11.20;49.70
12156;DHT22;6141;49.092;8.516;2022-11-20T13:46:17;11.00;50.60
12156;DHT22;6141;49.092;8.516;2022-11-20T14:01:37;11.00;51.10
12156;DHT22;6141;49.092;8.516;2022-11-20T14:04:06;11.40;51.20
12156;DHT22;6141;49.092;8.516;2022-11-20T14:06:39;11.60;48.80
12156;DHT22;6141;49.092;8.516;2022-11-20T14:09:10;11.70;47.60
12156;DHT22;6141;49.092;8.516;2022-11-20T14:11:45;11.50;46.10
12156;DHT22;6141;49.092;8.516;2022-11-20T14:14:15;11.30;48.00
12156;DHT22;6141;49.092;8.516;2022-11-20T14:16:46;11.20;48.00
12156;DHT22;6141;49.092;8.516;2022-11-20T14:19:28;11.20;48.40
12156;DHT22;6141;49.092;8.516;2022-11-20T14:22:08;11.20;47.50
12156;DHT22;6141;49.092;8.516;2022-11-20T14:24:37;11.10;48.20
12156;DHT22;6141;49.092;8.516;2022-11-20T14:27:10;11.00;48.30
12156;DHT22;6141;49.092;8.516;2022-11-20T14:29:38;11.00;49.10
12156;DHT22;6141;49.092;8.516;2022-11-20T14:32:10;11.00;47.90
12156;DHT22;6141;49.092;8.516;2022-11-20T14:34:39;10.90;48.10
12156;DHT22;6141;49.092;8.516;2022-11-20T14:37:10;10.80;48.70
12156;DHT22;6141;49.092;8.516;2022-11-20T14:39:46;10.80;47.60
12156;DHT22;6141;49.092;8.516;2022-11-20T14:42:16;10.80;48.10
12156;DHT22;6141;49.092;8.516;2022-11-20T14:44:44;10.60;48.20
12156;DHT22;6141;49.092;8.516;2022-11-20T14:47:15;10.60;48.80
12156;DHT22;6141;49.092;8.516;2022-11-20T14:49:45;10.40;49.70
12156;DHT22;6141;49.092;8.516;2022-11-20T14:52:15;10.50;50.20
12156;DHT22;6141;49.092;8.516;2022-11-20T14:54:44;10.60;49.70
12156;DHT22;6141;49.092;8.516;2022-11-20T14:57:21;10.60;49.30
12156;DHT22;6141;49.092;8.516;2022-11-20T14:59:50;10.60;48.10
12156;DHT22;6141;49.092;8.516;2022-11-20T15:02:20;10.50;49.70
12156;DHT22;6141;49.092;8.516;2022-11-20T15:04:51;10.40;48.90
12156;DHT22;6141;49.092;8.516;2022-11-20T15:07:24;10.40;49.50
12156;DHT22;6141;49.092;8.516;2022-11-20T15:10:00;10.40;49.30
12156;DHT22;6141;49.092;8.516;2022-11-20T15:12:29;10.40;49.20
12156;DHT22;6141;49.092;8.516;2022-11-20T15:14:58;10.30;49.20
12156;DHT22;6141;49.092;8.516;2022-11-20T15:17:28;10.30;48.80
12156;DHT22;6141;49.092;8.516;2022-11-20T15:19:57;10.20;49.10
12156;DHT22;6141;49.092;8.516;2022-11-20T15:22:27;10.10;49.60
12156;DHT22;6141;49.092;8.516;2022-11-20T15:24:55;10.20;49.10
12156;DHT22;6141;49.092;8.516;2022-11-20T15:27:25;10.10;49.30
12156;DHT22;6141;49.092;8.516;2022-11-20T15:29:54;10.10;50.10
12156;DHT22;6141;49.092;8.516;2022-11-20T15:32:23;10.10;50.80
12156;DHT22;6141;49.092;8.516;2022-11-20T15:34:53;10.20;49.00
12156;DHT22;6141;49.092;8.516;2022-11-20T15:37:22;10.20;49.10
12156;DHT22;6141;49.092;8.516;2022-11-20T15:39:55;10.40;49.00
12156;DHT22;6141;49.092;8.516;2022-11-20T15:42:24;10.50;48.60
12156;DHT22;6141;49.092;8.516;2022-11-20T15:44:53;10.60;48.60
12156;DHT22;6141;49.092;8.516;2022-11-20T15:47:23;10.60;48.40
12156;DHT22;6141;49.092;8.516;2022-11-20T15:49:53;10.50;48.30
12156;DHT22;6141;49.092;8.516;2022-11-20T15:52:22;10.50;48.80
12156;DHT22;6141;49.092;8.516;2022-11-20T15:54:50;10.60;48.90
12156;DHT22;6141;49.092;8.516;2022-11-20T15:57:19;10.50;49.00
12156;DHT22;6141;49.092;8.516;2022-11-20T15:59:47;10.60;48.90
12156;DHT22;6141;49.092;8.516;2022-11-20T16:02:16;10.60;48.60
12156;DHT22;6141;49.092;8.516;2022-11-20T16:04:45;10.60;48.80
12156;DHT22;6141;49.092;8.516;2022-11-20T16:07:15;10.50;48.70
12156;DHT22;6141;49.092;8.516;2022-11-20T16:09:43;10.50;48.90
12156;DHT22;6141;49.092;8.516;2022-11-20T16:12:12;10.40;48.20
12156;DHT22;6141;49.092;8.516;2022-11-20T16:15:01;10.40;49.30
12156;DHT22;6141;49.092;8.516;2022-11-20T16:17:47;10.40;49.20
12156;DHT22;6141;49.092;8.516;2022-11-20T16:20:15;10.40;48.80
12156;DHT22;6141;49.092;8.516;2022-11-20T16:22:45;10.40;49.10
12156;DHT22;6141;49.092;8.516;2022-11-20T16:25:13;10.50;50.10
12156;DHT22;6141;49.092;8.516;2022-11-20T16:27:42;10.50;48.40
12156;DHT22;6141;49.092;8.516;2022-11-20T16:30:11;10.40;49.80
12156;DHT22;6141;49.092;8.516;2022-11-20T16:32:39;10.40;48.80
12156;DHT22;6141;49.092;8.516;2022-11-20T16:35:08;10.30;49.10
12156;DHT22;6141;49.092;8.516;2022-11-20T16:37:37;10.20;49.30
12156;DHT22;6141;49.092;8.516;2022-11-20T16:40:08;10.20;49.20
12156;DHT22;6141;49.092;8.516;2022-11-20T16:42:38;10.20;49.70
12156;DHT22;6141;49.092;8.516;2022-11-20T16:45:07;10.10;49.00
12156;DHT22;6141;49.092;8.516;2022-11-20T16:47:35;10.10;49.60
12156;DHT22;6141;49.092;8.516;2022-11-20T16:50:04;10.10;48.70
12156;DHT22;6141;49.092;8.516;2022-11-20T16:52:33;10.10;49.50
12156;DHT22;6141;49.092;8.516;2022-11-20T16:55:02;10.10;49.30
12156;DHT22;6141;49.092;8.516;2022-11-20T16:57:32;10.10;50.10
12156;DHT22;6141;49.092;8.516;2022-11-20T17:00:01;10.10;49.70
12156;DHT22;6141;49.092;8.516;2022-11-20T17:02:29;10.10;49.40
12156;DHT22;6141;49.092;8.516;2022-11-20T17:04:58;10.20;49.00
12156;DHT22;6141;49.092;8.516;2022-11-20T17:07:26;10.20;49.20
12156;DHT22;6141;49.092;8.516;2022-11-20T17:09:54;10.00;50.50
12156;DHT22;6141;49.092;8.516;2022-11-20T17:12:24;10.10;50.20
12156;DHT22;6141;49.092;8.516;2022-11-20T17:14:54;10.10;49.80
12156;DHT22;6141;49.092;8.516;2022-11-20T17:17:22;10.20;49.70
12156;DHT22;6141;49.092;8.516;2022-11-20T17:19:51;10.30;50.40